• Join FlightAware (Why Join?)
  • Login
  • US Flag 
08:29AM EDT


 

Airport Tracker/Info


-or-


 

Live Flight TrackerFlight Track Log ✈ AWE3997 ✈ 04-May-2013 ✈ KRIC - KCLT

Flight Track Log - Related Links

Times and Time Zones

All times are in EDT time to prevent confusion due to time zone crossing. See the AWE3997 flight status page for this flight to view local times or setup timezone preferences in your user account.

Time Position Orientation Groundspeed Altitude Reporting Facility
EDT Latitude Longitude Course Direction KTS MPH feet Rate Location/Type
04:17PM 37.5172 -77.4089 251° West 166 191 3,800  Level Washington Center
04:18PM 37.4235 -77.6428 254° West  Level FlightAware Approximate
04:18PM 37.4600 -77.4678 219° Southwest 202 232 5,100  Level Washington Center
04:19PM 37.3968 -77.7585 254° West  Level FlightAware Approximate
04:19PM 37.4333 -77.5611 250° West 246 283 7,700  Level Washington Center
04:20PM 37.3705 -77.8743 254° West  Level FlightAware Approximate
04:21PM 37.3500 -77.9911 270° West  Level FlightAware Approximate
04:21PM 37.3964 -77.7667 257° West 302 348 11,600  Level Washington Center
04:22PM 37.3778 -77.8733 258° West 317 365 12,800 1,740 Climbing Washington Center
04:23PM 37.3589 -77.9853 258° West 324 373 15,100 1,860 Climbing Washington Center
04:24PM 37.3339 -78.0914 254° West 337 388 16,600 1,560 Climbing Washington Center
04:25PM 37.3081 -78.2211 256° West 342 394 18,200 1,500 Climbing Washington Center
04:26PM 37.2844 -78.3431 256° West 352 405 19,600 840 Climbing Washington Center
04:27PM 37.2792 -78.4786 267° West 371 427 20,000 960 Climbing Washington Center
04:28PM 37.2717 -78.6142 266° West 385 443 21,600 1,440 Climbing Washington Center
04:29PM 37.2131 -78.7083 232° Southwest 371 427 22,900 1,140 Climbing Washington Center
04:30PM 37.1456 -78.8072 229° Southwest 371 427 24,000 540 Climbing Washington Center
04:31PM 37.0783 -78.9086 230° Southwest 382 440 24,000 960 Level Washington Center
04:32PM 37.0131 -79.0044 230° Southwest 377 434 26,000 960 Climbing Washington Center
04:33PM 36.9411 -79.1078 229° Southwest 370 426 26,000  Level Washington Center
04:34PM 36.8736 -79.2036 229° Southwest 370 426 26,000  Level Washington Center
04:35PM 36.8081 -79.3017 230° Southwest 376 433 26,000  Level Washington Center
04:36PM 36.7403 -79.3994 229° Southwest 376 433 26,000  Level Washington Center
04:37PM 36.6703 -79.4997 229° Southwest 376 433 26,000  Level Washington Center
04:38PM 36.6111 -79.5872 230° Southwest 376 433 26,000  Level Washington Center
04:39PM 36.5453 -79.6819 229° Southwest 371 427 26,000 -1,080 Level Washington Center
04:42PM 36.3433 -79.9686 229° Southwest 403 464 22,100 -1,080 Descending Atlanta Center
04:43PM 36.2583 -80.0528 219° Southwest 408 470 22,000 -300 Descending Atlanta Center
04:44PM 36.1711 -80.1242 213° Southwest 390 449 21,600 -1,440 Descending Atlanta Center
04:45PM 36.0797 -80.2031 215° Southwest 376 433 19,200 -2,100 Descending Atlanta Center
04:46PM 35.9983 -80.2736 215° Southwest 376 433 17,400 -1,920 Descending Atlanta Center
04:47PM 35.9253 -80.3411 217° Southwest 363 418 15,400 -2,040 Descending Atlanta Center
04:48PM 35.8767 -80.3817 214° Southwest 312 359 14,100 -1,920 Descending Atlanta Center
04:48PM 35.8522 -80.4033 216° Southwest 339 390 13,500 -1,140 Descending Atlanta Center
04:49PM 35.8094 -80.4386 214° Southwest 294 338 13,000 -540 Descending Atlanta Center
04:49PM 35.7850 -80.4600 215° Southwest 309 356 13,000 -1,260 Level Atlanta Center
04:50PM 35.7342 -80.5033 215° Southwest 297 342 11,600 -1,620 Descending Atlanta Center
04:51PM 35.6586 -80.5653 214° Southwest 282 325 10,000 -840 Descending Atlanta Center
04:52PM 35.6119 -80.6056 215° Southwest 278 320 10,000  Level Atlanta Center
04:52PM 35.5894 -80.6219 211° Southwest 294 338 10,000  Level Atlanta Center
04:53PM 35.5403 -80.6622 214° Southwest 283 326 10,000  Level Atlanta Center
04:53PM 35.5219 -80.6756 211° Southwest 294 338 10,000  Level Atlanta Center
04:54PM 35.4669 -80.7239 216° Southwest 287 330 10,000  Level Atlanta Center
04:55PM 35.4058 -80.7772 215° Southwest 280 322 10,000 -540 Level Atlanta Center
04:56PM 35.3364 -80.8308 212° Southwest 274 315 9,000 -540 Descending Atlanta Center
04:57PM 35.2758 -80.8358 184° South 258 297 9,000 -540 Level Atlanta Center
04:58PM 35.2028 -80.8336 179° South 260 299 8,000 -1,500 Descending Atlanta Center
04:59PM 35.1192 -80.8267 176° South 252 290 5,800 -1,920 Descending Atlanta Center
05:00PM 35.0564 -80.8189 174° South 244 281 4,100 -960 Descending Atlanta Center
05:01PM 34.9853 -80.8167 179° South 254 292 4,000 -60 Descending Atlanta Center
05:02PM 34.9122 -80.8092 175° South 263 303 4,000  Level Atlanta Center
05:03PM 34.8456 -80.8194 187° South 263 303 4,000  Level Atlanta Center
05:04PM 34.8475 -80.8878 272° West 216 249 4,000  Level Atlanta Center
05:05PM 34.8961 -80.9139 336° Northwest 183 211 4,000  Level Atlanta Center
05:06PM 34.9442 -80.9144 359° North 179 206 4,000  Level Atlanta Center
05:07PM 34.9942 -80.9178 357° North 187 215 4,000 -120 Level Atlanta Center
05:08PM 35.0508 -80.9231 356° North 185 213 3,800 -660 Descending Atlanta Center
05:09PM 35.1050 -80.9286 355° North 181 208 2,700 -960 Descending Atlanta Center
05:10PM 35.1511 -80.9319 357° North 166 191 1,800 -900 Descending Atlanta Center